Time,TemperatureF,DewpointF,PressureIn,WindDirection,WindDirectionDegrees,WindSpeedMPH,WindSpeedGustMPH,Humidity,HourlyPrecipIn,Conditions,Clouds,dailyrainin,SoftwareType,DateUTC
2013-05-01 00:00:00,53.8,49.7,30.18,North,355,0.0,6.0,86,0.00,,,0.02,Wunderground v.1.13,2013-05-01 04:00:00,
2013-05-01 00:30:00,53.5,50.0,30.19,North,355,0.0,6.0,88,0.00,,,0.02,Wunderground v.1.13,2013-05-01 04:30:00,
2013-05-01 01:00:00,52.9,49.7,30.20,North,355,0.0,6.0,89,0.00,,,0.00,Wunderground v.1.13,2013-05-01 05:00:00,
2013-05-01 01:30:00,52.3,49.2,30.21,North,355,0.0,6.0,89,0.00,,,0.00,Wunderground v.1.13,2013-05-01 05:30:00,
2013-05-01 02:00:00,51.9,48.5,30.22,North,355,0.0,6.0,88,0.00,,,0.00,Wunderground v.1.13,2013-05-01 06:00:00,
2013-05-01 02:30:00,51.1,47.7,30.23,North,355,0.0,6.0,88,0.00,,,0.00,Wunderground v.1.13,2013-05-01 06:30:00,
2013-05-01 03:00:00,51.0,48.2,30.23,North,355,0.0,6.0,90,0.00,,,0.00,Wunderground v.1.13,2013-05-01 07:00:00,
2013-05-01 03:30:00,50.7,48.2,30.24,North,355,0.0,6.0,91,0.00,,,0.00,Wunderground v.1.13,2013-05-01 07:30:00,
2013-05-01 04:00:00,49.6,46.8,30.25,North,355,0.0,6.0,90,0.00,,,0.00,Wunderground v.1.13,2013-05-01 08:00:00,
2013-05-01 04:30:00,49.2,46.7,30.25,North,355,0.0,6.0,91,0.00,,,0.00,Wunderground v.1.13,2013-05-01 08:30:00,
2013-05-01 05:00:00,48.3,45.5,30.26,North,355,0.0,6.0,90,0.00,,,0.00,Wunderground v.1.13,2013-05-01 09:00:00,
2013-05-01 05:30:00,48.2,45.7,30.27,North,355,0.0,6.0,91,0.00,,,0.00,Wunderground v.1.13,2013-05-01 09:30:00,
2013-05-01 06:00:00,47.9,45.7,30.27,North,355,0.0,6.0,92,0.00,,,0.00,Wunderground v.1.13,2013-05-01 10:00:00,
2013-05-01 06:30:00,48.0,45.8,30.28,North,355,0.0,6.0,92,0.00,,,0.00,Wunderground v.1.13,2013-05-01 10:30:00,
2013-05-01 07:00:00,49.6,47.4,30.29,North,355,0.0,6.0,92,0.00,,,0.00,Wunderground v.1.13,2013-05-01 11:00:00,
2013-05-01 07:30:00,53.6,50.4,30.31,North,355,0.0,6.0,89,0.00,,,0.00,Wunderground v.1.13,2013-05-01 11:30:00,
2013-05-01 08:00:00,59.3,50.3,30.31,North,355,0.0,6.0,72,0.00,,,0.00,Wunderground v.1.13,2013-05-01 12:00:00,
2013-05-01 08:30:00,63.2,49.5,30.32,WSW,258,3.0,6.0,61,0.00,,,0.00,Wunderground v.1.13,2013-05-01 12:30:00,
2013-05-01 09:00:00,66.0,48.9,30.32,South,189,3.0,6.0,54,0.00,,,0.00,Wunderground v.1.13,2013-05-01 13:00:00,
2013-05-01 09:30:00,67.6,49.3,30.32,SSW,200,3.0,3.0,52,0.00,,,0.00,Wunderground v.1.13,2013-05-01 13:30:00,
2013-05-01 10:00:00,69.9,48.7,30.32,SSW,213,1.0,1.0,47,0.00,,,0.00,Wunderground v.1.13,2013-05-01 14:00:00,
2013-05-01 10:30:00,71.3,46.4,30.31,SSW,192,4.0,6.0,41,0.00,,,0.00,Wunderground v.1.13,2013-05-01 14:30:00,
2013-05-01 11:00:00,72.3,45.3,30.31,South,171,4.0,4.0,38,0.00,,,0.00,Wunderground v.1.13,2013-05-01 15:00:00,
2013-05-01 11:30:00,74.2,46.2,30.31,SSW,196,2.0,6.0,37,0.00,,,0.00,Wunderground v.1.13,2013-05-01 15:30:00,
2013-05-01 12:00:00,75.6,46.0,30.30,South,176,1.0,6.0,35,0.00,,,0.00,Wunderground v.1.13,2013-05-01 16:00:00,
2013-05-01 12:30:00,77.0,44.0,30.29,South,188,1.0,1.0,31,0.00,,,0.00,Wunderground v.1.13,2013-05-01 16:30:00,
2013-05-01 13:00:00,77.6,41.9,30.28,South,180,2.0,2.0,28,0.00,,,0.00,Wunderground v.1.13,2013-05-01 17:00:00,
2013-05-01 13:30:00,77.2,43.4,30.27,SSE,150,1.0,1.0,30,0.00,,,0.00,Wunderground v.1.13,2013-05-01 17:30:00,
2013-05-01 14:00:00,79.6,42.7,30.26,South,170,1.0,6.0,27,0.00,,,0.00,Wunderground v.1.13,2013-05-01 18:00:00,
2013-05-01 14:30:00,79.6,40.7,30.25,West,270,1.0,1.0,25,0.00,,,0.00,Wunderground v.1.13,2013-05-01 18:30:00,
2013-05-01 15:00:00,77.9,45.7,30.25,NNW,344,3.0,3.0,32,0.00,,,0.00,Wunderground v.1.13,2013-05-01 19:00:00,
2013-05-01 15:30:00,78.6,44.6,30.24,NNW,338,3.0,6.0,30,0.00,,,0.00,Wunderground v.1.13,2013-05-01 19:30:00,
2013-05-01 16:00:00,79.0,43.1,30.24,NW,321,3.0,6.0,28,0.00,,,0.00,Wunderground v.1.13,2013-05-01 20:00:00,
2013-05-01 16:30:00,77.9,44.8,30.24,NNE,21,4.0,4.0,31,0.00,,,0.00,Wunderground v.1.13,2013-05-01 20:30:00,
2013-05-01 17:00:00,78.6,41.8,30.24,NNW,339,4.0,6.0,27,0.00,,,0.00,Wunderground v.1.13,2013-05-01 21:00:00,
2013-05-01 17:30:00,78.6,41.8,30.24,North,355,3.0,3.0,27,0.00,,,0.00,Wunderground v.1.13,2013-05-01 21:30:00,
2013-05-01 18:00:00,78.5,42.7,30.25,NNW,348,1.0,6.0,28,0.00,,,0.00,Wunderground v.1.13,2013-05-01 22:00:00,
2013-05-01 18:30:00,78.5,42.7,30.24,NNW,348,1.0,1.0,28,0.00,,,0.00,Wunderground v.1.13,2013-05-01 22:30:00,
2013-05-01 19:00:00,77.7,42.0,30.25,NNW,348,1.0,1.0,28,0.00,,,0.00,Wunderground v.1.13,2013-05-01 23:00:00,
2013-05-01 19:30:00,76.5,44.4,30.25,NNW,348,0.0,6.0,32,0.00,,,0.00,Wunderground v.1.13,2013-05-01 23:30:00,
2013-05-01 20:00:00,73.7,47.9,30.25,NNW,348,0.0,6.0,40,0.00,,,0.00,Wunderground v.1.13,2013-05-02 00:00:00,
2013-05-01 20:30:00,69.6,48.5,30.25,NNW,348,0.0,6.0,47,0.00,,,0.00,Wunderground v.1.13,2013-05-02 00:30:00,
2013-05-01 21:00:00,66.6,48.9,30.26,NNW,348,0.0,6.0,53,0.00,,,0.00,Wunderground v.1.13,2013-05-02 01:00:00,
2013-05-01 21:30:00,64.5,49.4,30.27,NNW,348,0.0,6.0,58,0.00,,,0.00,Wunderground v.1.13,2013-05-02 01:30:00,
2013-05-01 22:00:00,63.9,51.1,30.28,NNW,348,0.0,6.0,63,0.00,,,0.00,Wunderground v.1.13,2013-05-02 02:00:00,
2013-05-01 22:30:00,63.4,52.7,30.28,NNW,348,0.0,6.0,68,0.00,,,0.00,Wunderground v.1.13,2013-05-02 02:30:00,
2013-05-01 23:00:00,62.9,53.7,30.27,NNW,348,0.0,6.0,72,0.00,,,0.00,Wunderground v.1.13,2013-05-02 03:00:00,
2013-05-01 23:30:00,61.3,52.2,30.27,NNW,348,0.0,6.0,72,0.00,,,0.00,Wunderground v.1.13,2013-05-02 03:30:00,